createdAt,value
2018-09-11T00:02:22.967Z,4.9
2018-09-11T00:08:17.985Z,4.23
2018-09-11T00:14:12.974Z,3.61
2018-09-11T00:20:07.969Z,4.29
2018-09-11T00:26:03.029Z,4.53
2018-09-11T00:31:58.068Z,3.87
2018-09-11T00:37:53.008Z,3.84
2018-09-11T00:43:48.007Z,4.18
2018-09-11T00:49:43.005Z,4.68
2018-09-11T00:55:38.057Z,4.55
2018-09-11T01:01:33.054Z,3.88
2018-09-11T01:07:28.083Z,4.13
2018-09-11T01:13:23.063Z,4.32
2018-09-11T01:19:18.057Z,4.36
2018-09-11T01:25:13.042Z,4.68
2018-09-11T01:31:08.058Z,5.1
2018-09-11T01:37:03.103Z,3.72
2018-09-11T01:42:58.083Z,4.29
2018-09-11T01:48:53.068Z,4.53
2018-09-11T01:54:48.085Z,4.12
2018-09-11T02:00:43.107Z,4.59
2018-09-11T02:06:38.094Z,4.3
2018-09-11T02:12:33.110Z,4.28
2018-09-11T02:18:28.127Z,4.35
2018-09-11T02:24:23.120Z,3.97
2018-09-11T02:30:18.118Z,4.37
2018-09-11T02:36:13.098Z,4.12
2018-09-11T02:42:08.142Z,4.04
2018-09-11T02:48:03.144Z,4.34
2018-09-11T02:53:58.173Z,4.27
2018-09-11T02:59:53.205Z,4.72
2018-09-11T03:05:48.150Z,4.56
2018-09-11T03:11:43.200Z,4.45
2018-09-11T03:17:38.171Z,4.38
2018-09-11T03:23:33.176Z,5.18
2018-09-11T03:29:28.247Z,4.4
2018-09-11T03:35:23.174Z,4.84
2018-09-11T03:41:18.184Z,4.43
2018-09-11T03:47:13.172Z,4.92
2018-09-11T03:53:08.212Z,4.24
2018-09-11T03:59:03.204Z,4.97
2018-09-11T04:04:58.205Z,4.67
2018-09-11T04:10:53.216Z,4.3
2018-09-11T04:16:48.202Z,4.73
2018-09-11T04:22:43.237Z,4.81
2018-09-11T04:28:38.360Z,4.44
2018-09-11T04:34:33.256Z,4.98
2018-09-11T04:40:28.274Z,4.62
2018-09-11T04:46:23.243Z,6.16
2018-09-11T04:52:18.234Z,6.51
2018-09-11T04:58:13.325Z,4.86
2018-09-11T05:04:08.247Z,5.32
2018-09-11T05:10:03.320Z,5.86
2018-09-11T05:15:58.262Z,5.42
2018-09-11T05:21:53.273Z,4.48
2018-09-11T05:27:48.310Z,4.91
2018-09-11T05:33:43.306Z,4.36
2018-09-11T05:39:38.297Z,4.65
2018-09-11T05:45:33.349Z,4.97
2018-09-11T05:51:28.325Z,6.23
2018-09-11T05:57:23.314Z,6.23
2018-09-11T06:03:18.318Z,5.7
2018-09-11T06:09:13.330Z,6.01
2018-09-11T06:15:08.354Z,5.86
2018-09-11T06:21:03.336Z,6.53
2018-09-11T06:26:58.360Z,6.74
2018-09-11T06:32:53.338Z,6.24
2018-09-11T06:38:48.344Z,6.18
2018-09-11T06:44:43.389Z,6.29
2018-09-11T06:50:38.392Z,6.78
2018-09-11T06:56:33.378Z,6.16
2018-09-11T07:02:28.371Z,5.34
2018-09-11T07:08:23.379Z,5.93
2018-09-11T07:14:18.366Z,5.58
2018-09-11T07:20:13.605Z,5.8
2018-09-11T07:26:08.461Z,5.73
2018-09-11T07:32:03.401Z,6.51
2018-09-11T07:37:58.431Z,6.56
2018-09-11T07:43:53.480Z,6.29
2018-09-11T07:49:48.421Z,6.76
2018-09-11T07:55:43.429Z,9.16
2018-09-11T08:01:38.459Z,8.18
2018-09-11T08:07:33.419Z,8.08
2018-09-11T08:13:28.422Z,8.75
2018-09-11T08:19:23.472Z,8.33
2018-09-11T08:25:18.439Z,8.13
2018-09-11T08:31:13.466Z,8.33
2018-09-11T08:37:08.469Z,9.75
2018-09-11T08:43:03.467Z,7.83
2018-09-11T08:48:58.472Z,8.42
2018-09-11T08:54:53.494Z,8.26
2018-09-11T09:00:48.482Z,8.22
2018-09-11T09:06:43.475Z,8.68
2018-09-11T09:12:38.509Z,7.41
2018-09-11T09:18:33.498Z,7.23
2018-09-11T09:24:28.539Z,7.92
2018-09-11T09:30:23.502Z,8.39
2018-09-11T09:36:18.539Z,8.56
2018-09-11T09:42:13.528Z,8.1
2018-09-11T09:48:08.543Z,7.09
2018-09-11T09:54:03.595Z,8.65
2018-09-11T09:59:58.546Z,8.27
2018-09-11T10:05:53.555Z,7.97
2018-09-11T10:11:48.635Z,7.98
2018-09-11T10:17:43.648Z,7.36
2018-09-11T10:23:38.562Z,7.61
2018-09-11T10:29:33.590Z,6.72
2018-09-11T10:35:28.591Z,7.31
2018-09-11T10:41:23.586Z,7.31
2018-09-11T10:47:18.585Z,7.79
2018-09-11T10:53:13.593Z,7.56
2018-09-11T10:59:08.652Z,6.23
2018-09-11T11:05:03.683Z,7
2018-09-11T11:10:58.625Z,6.56
2018-09-11T11:16:53.687Z,6.43
2018-09-11T11:22:48.646Z,5.88
2018-09-11T11:28:43.627Z,6.28
2018-09-11T11:34:38.674Z,6.1
2018-09-11T11:40:33.630Z,5.98
2018-09-11T11:46:28.652Z,5.82
2018-09-11T11:52:23.692Z,5.92
2018-09-11T11:58:18.721Z,5.34
2018-09-11T12:04:13.675Z,4.63
2018-09-11T12:10:08.696Z,5.02
2018-09-11T12:16:03.711Z,4.5
2018-09-11T12:21:58.712Z,4.75
2018-09-11T12:27:53.697Z,3.4
2018-09-11T12:33:48.705Z,3.84
2018-09-11T12:39:43.747Z,3.79
2018-09-11T12:45:38.801Z,3.22
2018-09-11T12:51:33.714Z,3
2018-09-11T12:57:28.715Z,2.95
2018-09-11T13:03:23.740Z,3.08
2018-09-11T13:09:18.805Z,2.86
2018-09-11T13:15:13.830Z,2.45
2018-09-11T13:21:08.815Z,2.81
2018-09-11T13:27:03.758Z,2.56
2018-09-11T13:32:58.769Z,2.61
2018-09-11T13:38:53.800Z,2.6
2018-09-11T13:44:48.762Z,2.76
2018-09-11T13:50:43.780Z,2.18
2018-09-11T13:56:38.815Z,2.11
2018-09-11T14:02:33.868Z,1.8
2018-09-11T14:08:28.828Z,2.27
2018-09-11T14:14:23.810Z,2.12
2018-09-11T14:20:18.865Z,2.11
2018-09-11T14:26:13.812Z,2.5
2018-09-11T14:32:08.833Z,1.98
2018-09-11T14:38:03.825Z,2.19
2018-09-11T14:43:58.878Z,3.12
2018-09-11T14:49:53.816Z,2.8
2018-09-11T14:55:48.896Z,2.71
2018-09-11T15:01:43.897Z,3
2018-09-11T15:07:38.895Z,2.99
2018-09-11T15:13:33.861Z,3.17
2018-09-11T15:19:28.884Z,3.14
2018-09-11T15:25:23.877Z,3.04
2018-09-11T15:31:18.919Z,3.3
2018-09-11T15:37:13.891Z,3.31
2018-09-11T15:43:08.900Z,3.26
2018-09-11T15:49:03.907Z,2.92
2018-09-11T15:54:58.900Z,3.06
2018-09-11T16:00:53.928Z,3.11
2018-09-11T16:06:48.945Z,3.07
2018-09-11T16:12:43.915Z,3.34
2018-09-11T16:18:38.929Z,3.84
2018-09-11T16:24:33.922Z,3.72
2018-09-11T16:30:28.933Z,3.92
2018-09-11T16:36:23.965Z,4.4
2018-09-11T16:42:18.962Z,4.79
2018-09-11T16:48:13.965Z,3.57
2018-09-11T16:54:08.962Z,4.12
2018-09-11T17:00:04.204Z,3.73
2018-09-11T17:05:59.023Z,4.08
2018-09-11T17:11:54.013Z,3.88
2018-09-11T17:17:49.064Z,3.71
2018-09-11T17:23:44.019Z,3.57
2018-09-11T17:29:39.036Z,3.87
2018-09-11T17:35:34.075Z,4.06
2018-09-11T17:41:29.049Z,4.64
2018-09-11T17:47:24.050Z,4.56
2018-09-11T17:53:19.047Z,4.03
2018-09-11T17:59:14.062Z,5.67
2018-09-11T18:05:09.060Z,4.66
2018-09-11T18:11:04.061Z,6.05
2018-09-11T18:16:59.067Z,4.78
2018-09-11T18:22:54.097Z,4.92
2018-09-11T18:28:49.069Z,4.88
2018-09-11T18:34:44.062Z,4.54
2018-09-11T18:40:39.081Z,4.6
2018-09-11T18:46:34.088Z,4.3
2018-09-11T18:52:29.066Z,4.68
2018-09-11T18:58:24.110Z,4.89
2018-09-11T19:04:19.097Z,4.81
2018-09-11T19:10:14.099Z,5.4
2018-09-11T19:16:09.085Z,5.6
2018-09-11T19:22:04.139Z,5.6
2018-09-11T19:27:59.118Z,6.01
2018-09-11T19:33:54.115Z,4.9
2018-09-11T19:39:49.135Z,5.84
2018-09-11T19:45:44.136Z,5.73
2018-09-11T19:51:39.196Z,5.42
2018-09-11T19:57:34.139Z,5.97
2018-09-11T20:03:29.165Z,5.22
2018-09-11T20:09:24.202Z,5.12
2018-09-11T20:15:19.228Z,5.5
2018-09-11T20:21:14.226Z,4.9
2018-09-11T20:27:09.207Z,6.1
2018-09-11T20:33:04.184Z,5.55
2018-09-11T20:38:59.237Z,5.04
2018-09-11T20:44:54.296Z,5.55
2018-09-11T20:50:49.191Z,4.97
2018-09-11T20:56:44.263Z,5.78
2018-09-11T21:02:39.212Z,5.46
2018-09-11T21:08:34.220Z,5.36
2018-09-11T21:14:29.303Z,6.24
2018-09-11T21:20:24.271Z,5.1
2018-09-11T21:26:19.231Z,4.88
2018-09-11T21:32:14.268Z,4.92
2018-09-11T21:38:09.252Z,4.55
2018-09-11T21:44:04.257Z,5.4
2018-09-11T21:49:59.255Z,4.95
2018-09-11T21:55:54.285Z,5.32
2018-09-11T22:01:49.267Z,5.34
2018-09-11T22:07:44.280Z,5.27
2018-09-11T22:13:39.309Z,4.84
2018-09-11T22:19:34.307Z,5.16
2018-09-11T22:25:29.292Z,5.69
2018-09-11T22:31:24.322Z,5.34
2018-09-11T22:37:19.425Z,5.1
2018-09-11T22:43:14.343Z,5.49
2018-09-11T22:49:09.300Z,4.85
2018-09-11T22:55:04.336Z,5.6
2018-09-11T23:00:59.349Z,5.98
2018-09-11T23:06:54.337Z,4.8
2018-09-11T23:12:49.376Z,5.06
2018-09-11T23:18:44.338Z,5.27
2018-09-11T23:24:39.351Z,5.17
2018-09-11T23:30:34.376Z,5.17
2018-09-11T23:36:29.395Z,4.88
2018-09-11T23:42:24.430Z,5.32
2018-09-11T23:48:19.420Z,4.93
2018-09-11T23:54:14.415Z,5.23
